createdAt,value
2023-09-12T05:13:36.205Z,528.00
2023-09-12T05:14:37.807Z,509.20
2023-09-12T05:15:37.227Z,500.70
2023-09-12T05:16:37.206Z,497.90
2023-09-12T05:17:37.145Z,494.40
2023-09-12T05:18:37.155Z,496.90
2023-09-12T05:19:37.109Z,503.60
2023-09-12T05:20:37.082Z,518.20
2023-09-12T05:21:37.122Z,517.60
2023-09-12T05:22:37.051Z,527.70
2023-09-12T05:23:37.044Z,505.40
2023-09-12T05:24:37.100Z,516.50
2023-09-12T05:25:37.053Z,521.30
2023-09-12T05:26:37.023Z,526.00
2023-09-12T05:27:37.023Z,511.80
2023-09-12T05:28:42.402Z,518.80
2023-09-12T05:29:37.005Z,526.10
2023-09-12T05:30:37.057Z,529.70
2023-09-12T05:31:37.021Z,521.60
2023-09-12T05:32:37.061Z,525.40
2023-09-12T05:33:36.971Z,537.10
2023-09-12T05:34:37.273Z,527.10
2023-09-12T05:35:36.919Z,549.70
2023-09-12T05:36:36.970Z,535.70
2023-09-12T05:37:36.894Z,562.50
2023-09-12T05:38:36.891Z,539.90
2023-09-12T05:39:36.981Z,506.60
2023-09-12T05:40:36.882Z,519.90
2023-09-12T05:41:36.856Z,457.30
2023-09-12T05:42:36.940Z,425.40
2023-09-12T05:43:36.826Z,442.80
2023-09-12T05:44:36.828Z,463.40
2023-09-12T05:45:36.865Z,443.00
2023-09-12T05:46:36.868Z,423.50
2023-09-12T05:47:36.843Z,451.40
2023-09-12T05:48:36.870Z,415.60
2023-09-12T05:49:36.783Z,457.20
2023-09-12T05:50:36.765Z,479.00
2023-09-12T05:51:36.782Z,440.60
2023-09-12T05:52:36.727Z,427.80
2023-09-12T05:53:36.746Z,479.20
2023-09-12T05:54:36.837Z,512.60
2023-09-12T05:55:36.703Z,487.60
2023-09-12T05:56:36.704Z,455.00
2023-09-12T05:57:36.726Z,495.00
2023-09-12T05:58:36.675Z,530.70
2023-09-12T05:59:36.650Z,479.00
2023-09-12T06:00:36.650Z,434.60
2023-09-12T06:01:36.688Z,458.90
2023-09-12T06:02:36.626Z,502.40
2023-09-12T06:03:36.782Z,472.80
2023-09-12T06:04:36.746Z,415.20
2023-09-12T06:05:36.622Z,440.90
2023-09-12T06:06:36.611Z,487.70
2023-09-12T06:07:36.581Z,523.10
2023-09-12T06:08:36.568Z,541.40
2023-09-12T06:09:36.596Z,542.30
2023-09-12T06:10:36.569Z,554.80
2023-09-12T06:11:36.522Z,565.50
2023-09-12T06:12:36.539Z,574.40
2023-09-12T06:13:36.503Z,583.20
2023-09-12T06:14:36.498Z,594.80
2023-09-12T06:15:36.478Z,646.80
2023-09-12T06:16:36.528Z,661.20
2023-09-12T06:17:36.480Z,587.70
2023-09-12T06:18:36.495Z,598.10
2023-09-12T06:19:36.435Z,593.90
2023-09-12T06:20:36.423Z,591.60
2023-09-12T06:21:36.460Z,613.50
2023-09-12T06:22:36.417Z,591.10
2023-09-12T06:23:36.385Z,601.30
2023-09-12T06:24:36.387Z,606.60
2023-09-12T06:25:36.364Z,572.60
2023-09-12T06:26:36.363Z,627.70
2023-09-12T06:27:36.407Z,617.60
2023-09-12T06:28:36.553Z,640.00
2023-09-12T06:29:36.314Z,671.70
2023-09-12T06:30:36.337Z,678.90
2023-09-12T06:31:36.380Z,689.40
2023-09-12T06:32:36.359Z,691.10
2023-09-12T06:33:36.289Z,684.10
2023-09-12T06:34:36.252Z,701.40
2023-09-12T06:35:36.245Z,673.60
2023-09-12T06:36:36.518Z,669.20
2023-09-12T06:37:36.237Z,687.70
2023-09-12T06:38:36.212Z,682.40
2023-09-12T06:39:36.209Z,679.20
2023-09-12T06:40:36.172Z,690.50
2023-09-12T06:41:36.198Z,684.60
2023-09-12T06:42:36.221Z,659.10
2023-09-12T06:43:36.161Z,686.00
2023-09-12T06:44:36.141Z,688.00
2023-09-12T06:45:36.186Z,669.70
2023-09-12T06:46:36.172Z,670.30
2023-09-12T06:47:36.140Z,643.60
2023-09-12T06:48:36.152Z,641.40
2023-09-12T06:49:36.104Z,652.10
2023-09-12T06:50:36.222Z,658.10
2023-09-12T06:51:38.660Z,672.90
2023-09-12T06:52:36.044Z,653.80
2023-09-12T06:53:36.074Z,636.60
2023-09-12T06:54:36.060Z,653.20
2023-09-12T06:55:36.048Z,643.80
2023-09-12T06:56:36.013Z,676.20
2023-09-12T06:57:36.078Z,663.00
2023-09-12T06:58:35.984Z,680.00
2023-09-12T06:59:35.984Z,700.90
2023-09-12T07:00:36.061Z,706.10
2023-09-12T07:01:35.996Z,733.30
2023-09-12T07:02:35.986Z,737.30
2023-09-12T07:03:36.125Z,713.70
2023-09-12T07:04:35.914Z,729.80
2023-09-12T07:05:35.949Z,732.90
2023-09-12T07:06:35.927Z,739.40
2023-09-12T07:07:35.896Z,728.60
2023-09-12T07:08:35.867Z,736.00
2023-09-12T07:09:35.945Z,748.30
2023-09-12T07:10:35.863Z,743.70
2023-09-12T07:11:35.859Z,745.30
2023-09-12T07:12:35.851Z,733.70
2023-09-12T07:13:35.829Z,738.70
2023-09-12T07:14:35.818Z,753.10
2023-09-12T07:15:35.811Z,749.20
2023-09-12T07:16:35.829Z,766.20
2023-09-12T07:17:35.794Z,753.90
2023-09-12T07:18:35.836Z,762.00
2023-09-12T07:19:35.779Z,762.80
2023-09-12T07:20:35.762Z,763.00
2023-09-12T07:21:35.885Z,773.90
2023-09-12T07:22:35.730Z,803.70
2023-09-12T07:23:35.719Z,793.40
2023-09-12T07:24:35.742Z,812.00
2023-09-12T07:25:35.709Z,809.60
2023-09-12T07:26:35.701Z,827.00
2023-09-12T07:27:35.698Z,816.40
2023-09-12T07:28:35.712Z,826.20
2023-09-12T07:29:35.671Z,833.00
2023-09-12T07:30:35.707Z,899.60
2023-09-12T07:31:35.647Z,877.60
2023-09-12T07:32:35.740Z,862.30
2023-09-12T07:33:35.711Z,876.60
2023-09-12T07:34:35.611Z,926.50
2023-09-12T07:35:35.592Z,954.50
2023-09-12T07:36:35.602Z,979.70
2023-09-12T07:37:35.559Z,986.60
2023-09-12T07:38:35.570Z,999.90
2023-09-12T07:39:35.596Z,999.90
2023-09-12T07:40:35.525Z,999.90
2023-09-12T07:41:35.511Z,999.90
2023-09-12T07:42:35.575Z,999.90
2023-09-12T07:43:35.527Z,999.90
2023-09-12T07:44:35.517Z,999.90
2023-09-12T07:45:36.157Z,999.90
2023-09-12T07:46:35.558Z,999.90
2023-09-12T07:47:35.505Z,999.90
2023-09-12T07:48:35.456Z,999.90
2023-09-12T07:49:35.448Z,999.90
2023-09-12T07:50:35.414Z,999.90
2023-09-12T07:51:35.448Z,999.90
2023-09-12T07:52:35.418Z,999.90
2023-09-12T07:53:35.384Z,999.90
2023-09-12T07:54:35.433Z,999.90
2023-09-12T07:55:35.356Z,999.90
2023-09-12T07:56:35.353Z,999.90
2023-09-12T07:57:35.451Z,999.90
2023-09-12T07:58:35.325Z,999.90
2023-09-12T07:59:35.316Z,999.90
2023-09-12T08:00:35.351Z,999.90
2023-09-12T08:01:35.340Z,992.30
2023-09-12T08:02:35.291Z,999.90
2023-09-12T08:03:35.335Z,988.50
2023-09-12T08:04:35.430Z,986.80
2023-09-12T08:05:35.271Z,999.90
2023-09-12T08:06:44.280Z,999.90
2023-09-12T08:07:35.280Z,990.30
2023-09-12T08:08:35.392Z,997.70
2023-09-12T08:09:35.266Z,986.20
2023-09-12T08:10:35.216Z,999.90
2023-09-12T08:11:35.192Z,983.60
2023-09-12T08:12:35.242Z,986.30
2023-09-12T08:13:35.176Z,972.80
2023-09-12T08:14:35.146Z,986.00
2023-09-12T08:15:35.225Z,999.90
2023-09-12T08:16:35.208Z,999.50
2023-09-12T08:17:35.194Z,995.00
2023-09-12T08:18:35.157Z,999.90
2023-09-12T08:19:35.379Z,999.90
2023-09-12T08:20:35.085Z,999.90
2023-09-12T08:21:35.114Z,999.90
2023-09-12T08:22:35.073Z,999.90
2023-09-12T08:23:35.068Z,999.90
2023-09-12T08:24:35.115Z,999.90
2023-09-12T08:25:35.041Z,999.90
2023-09-12T08:26:35.035Z,999.90
2023-09-12T08:27:35.101Z,999.90
2023-09-12T08:28:34.997Z,999.90
2023-09-12T08:29:35.019Z,999.90
2023-09-12T08:30:35.004Z,999.90
2023-09-12T08:31:35.047Z,999.90
2023-09-12T08:32:35.052Z,999.90
2023-09-12T08:33:35.019Z,999.90
2023-09-12T08:34:34.938Z,999.90
2023-09-12T08:35:34.935Z,999.90
2023-09-12T08:36:34.996Z,987.10
2023-09-12T08:37:34.945Z,969.80
2023-09-12T08:38:34.924Z,962.90
2023-09-12T08:39:34.911Z,988.60
2023-09-12T08:40:34.887Z,960.40
2023-09-12T08:41:34.921Z,967.90
2023-09-12T08:42:34.892Z,963.50
2023-09-12T08:43:34.856Z,979.60
2023-09-12T08:44:35.821Z,966.40
2023-09-12T08:45:34.861Z,970.50
2023-09-12T08:46:34.863Z,968.00
2023-09-12T08:47:34.954Z,966.50
2023-09-12T08:48:34.855Z,976.40
2023-09-12T08:49:34.784Z,970.20
2023-09-12T08:50:34.770Z,984.00
2023-09-12T08:51:34.804Z,976.60
2023-09-12T08:52:34.785Z,967.20
2023-09-12T08:53:34.750Z,964.80
2023-09-12T08:54:34.815Z,991.40
2023-09-12T08:55:34.720Z,991.50
2023-09-12T08:56:34.745Z,976.20
2023-09-12T08:57:34.751Z,983.10
2023-09-12T08:58:34.687Z,999.60
2023-09-12T08:59:34.683Z,999.90
2023-09-12T09:00:34.736Z,999.90
2023-09-12T09:01:36.416Z,999.90
2023-09-12T09:02:34.660Z,999.90
2023-09-12T09:03:34.670Z,999.90
2023-09-12T09:04:34.628Z,999.90
2023-09-12T09:05:34.667Z,999.90
2023-09-12T09:06:34.690Z,999.90
2023-09-12T09:07:34.950Z,999.90
2023-09-12T09:08:34.593Z,999.90
2023-09-12T09:09:34.693Z,999.90
2023-09-12T09:10:50.324Z,999.90
2023-09-12T09:11:34.552Z,999.90
2023-09-12T09:12:34.657Z,999.90
2023-09-12T09:13:34.533Z,999.90
2023-09-12T09:14:34.547Z,999.90
2023-09-12T09:15:34.556Z,999.90
2023-09-12T09:16:34.523Z,999.90
2023-09-12T09:17:36.502Z,999.90
2023-09-12T09:18:34.536Z,999.90
2023-09-12T09:19:34.504Z,999.90
2023-09-12T09:20:34.480Z,999.90
2023-09-12T09:21:34.504Z,999.90
2023-09-12T09:22:34.454Z,999.90
2023-09-12T09:23:34.425Z,999.90
2023-09-12T09:24:34.445Z,999.90
2023-09-12T09:25:34.485Z,999.90
2023-09-12T09:26:34.994Z,999.90
2023-09-12T09:27:34.604Z,999.90
2023-09-12T09:28:34.396Z,999.90
2023-09-12T09:29:34.388Z,999.90
2023-09-12T09:30:34.379Z,999.90
2023-09-12T09:31:34.370Z,999.90
2023-09-12T09:32:34.385Z,999.90
2023-09-12T09:33:34.628Z,999.90
2023-09-12T09:34:34.316Z,999.90
2023-09-12T09:35:34.303Z,999.90
2023-09-12T09:36:34.560Z,999.90
2023-09-12T09:37:34.300Z,999.90
2023-09-12T09:38:34.301Z,999.90
2023-09-12T09:39:34.339Z,999.90
2023-09-12T09:40:34.374Z,999.90
2023-09-12T09:41:34.265Z,999.90
2023-09-12T09:42:34.273Z,999.90
2023-09-12T09:43:34.237Z,999.90
2023-09-12T09:44:34.240Z,999.90
2023-09-12T09:45:34.305Z,999.90
2023-09-12T09:46:34.231Z,999.90
2023-09-12T09:47:34.220Z,999.90
2023-09-12T09:48:34.220Z,999.90
2023-09-12T09:49:34.177Z,999.90
2023-09-12T09:50:34.170Z,999.90
2023-09-12T09:51:34.185Z,999.90
2023-09-12T09:52:34.156Z,999.90
2023-09-12T09:53:34.232Z,999.90
2023-09-12T09:54:34.267Z,999.90
2023-09-12T09:55:34.093Z,999.90
2023-09-12T09:56:34.097Z,999.90
2023-09-12T09:57:34.100Z,999.90
2023-09-12T09:58:34.103Z,999.90
2023-09-12T09:59:34.074Z,999.90
2023-09-12T10:00:34.106Z,999.90
2023-09-12T10:01:34.080Z,999.90
2023-09-12T10:02:34.133Z,999.90
2023-09-12T10:03:34.127Z,999.90
2023-09-12T10:04:45.621Z,999.90
2023-09-12T10:05:33.989Z,999.90
2023-09-12T10:06:34.063Z,999.90
2023-09-12T10:07:33.976Z,999.90
2023-09-12T10:08:33.981Z,999.90
2023-09-12T10:09:33.998Z,999.90
2023-09-12T10:10:33.977Z,999.90
2023-09-12T10:11:33.973Z,999.90
2023-09-12T10:12:34.031Z,999.90
2023-09-12T10:13:33.931Z,999.90
2023-09-12T10:14:33.914Z,999.90
2023-09-12T10:15:33.970Z,999.90
2023-09-12T10:16:34.023Z,999.90
2023-09-12T10:17:33.896Z,999.90
2023-09-12T10:18:33.931Z,999.90
2023-09-12T10:19:33.934Z,999.90
2023-09-12T10:20:33.853Z,999.90
2023-09-12T10:21:33.929Z,999.90
2023-09-12T10:22:33.964Z,999.90
2023-09-12T10:23:33.829Z,999.90
2023-09-12T10:24:33.829Z,999.90
2023-09-12T10:25:33.797Z,999.90
2023-09-12T10:26:33.790Z,999.90
2023-09-12T10:27:33.792Z,999.90
2023-09-12T10:28:33.735Z,999.90
2023-09-12T10:29:33.740Z,999.90
2023-09-12T10:30:33.753Z,999.90
2023-09-12T10:31:33.748Z,999.90
2023-09-12T10:32:33.777Z,999.90
2023-09-12T10:33:33.734Z,999.90
2023-09-12T10:34:33.684Z,999.90
2023-09-12T10:35:33.699Z,999.90
2023-09-12T10:36:33.707Z,999.90
2023-09-12T10:37:33.884Z,999.90
2023-09-12T10:38:33.655Z,999.90
2023-09-12T10:39:33.663Z,999.90
2023-09-12T10:40:33.643Z,999.90
2023-09-12T10:41:33.590Z,999.90
2023-09-12T10:42:33.637Z,999.90
2023-09-12T10:43:33.577Z,999.90
2023-09-12T10:44:33.598Z,999.90
2023-09-12T10:45:33.639Z,999.90
2023-09-12T10:46:33.582Z,999.90
2023-09-12T10:47:33.610Z,999.90
2023-09-12T10:48:33.641Z,999.90
2023-09-12T10:49:33.521Z,999.90
2023-09-12T10:50:33.528Z,999.90
2023-09-12T10:51:33.591Z,999.90
2023-09-12T10:52:33.485Z,999.90
2023-09-12T10:53:33.489Z,999.90
2023-09-12T10:54:33.487Z,999.90
2023-09-12T10:55:33.450Z,999.90
2023-09-12T10:56:33.439Z,999.90
2023-09-12T10:57:33.478Z,999.90
2023-09-12T10:58:33.571Z,999.90
2023-09-12T10:59:33.439Z,999.90
2023-09-12T11:00:33.429Z,999.90
2023-09-12T11:01:33.419Z,999.90
2023-09-12T11:02:33.554Z,999.90
2023-09-12T11:03:33.451Z,999.90
2023-09-12T11:04:33.440Z,999.90
2023-09-12T11:05:33.365Z,999.90
2023-09-12T11:06:33.378Z,999.90
2023-09-12T11:07:33.344Z,999.90
2023-09-12T11:08:33.888Z,999.90
2023-09-12T11:09:33.346Z,999.90
2023-09-12T11:10:33.317Z,999.90
2023-09-12T11:11:33.260Z,999.90
2023-09-12T11:12:33.351Z,999.90
2023-09-12T11:13:33.248Z,999.90
2023-09-12T11:14:33.409Z,999.90
2023-09-12T11:15:33.278Z,999.90
2023-09-12T11:16:33.333Z,999.90
2023-09-12T11:17:33.246Z,999.90
2023-09-12T11:18:33.212Z,999.90
2023-09-12T11:19:33.240Z,999.90
2023-09-12T11:20:33.217Z,999.90
2023-09-12T11:21:33.224Z,999.90
2023-09-12T11:22:33.172Z,999.90
2023-09-12T11:23:33.144Z,999.90
2023-09-12T11:24:33.209Z,999.90
2023-09-12T11:25:33.127Z,999.90
2023-09-12T11:26:33.140Z,999.90
2023-09-12T11:27:33.146Z,999.90
2023-09-12T11:28:33.089Z,999.90
2023-09-12T11:29:33.092Z,999.90
2023-09-12T11:30:33.136Z,999.90
2023-09-12T11:31:33.140Z,999.90
2023-09-12T11:32:33.273Z,999.90
2023-09-12T11:33:33.354Z,999.90
2023-09-12T11:34:33.121Z,999.90
2023-09-12T11:35:33.015Z,999.90
2023-09-12T11:36:33.051Z,999.90
2023-09-12T11:37:33.001Z,999.90
2023-09-12T11:38:33.224Z,999.90
2023-09-12T11:39:33.030Z,999.90
2023-09-12T11:40:32.976Z,999.90
2023-09-12T11:41:32.978Z,999.90
2023-09-12T11:42:33.014Z,999.90
2023-09-12T11:43:32.983Z,999.90
2023-09-12T11:44:32.983Z,999.90
2023-09-12T11:45:33.037Z,999.90
2023-09-12T11:46:32.945Z,999.90
2023-09-12T11:47:33.011Z,999.90
2023-09-12T11:48:33.100Z,999.90
2023-09-12T11:49:32.906Z,999.90
2023-09-12T11:50:33.811Z,999.90
2023-09-12T11:51:32.898Z,999.90
2023-09-12T11:52:32.891Z,999.90
2023-09-12T11:53:32.856Z,999.90
2023-09-12T11:54:33.170Z,999.90
2023-09-12T11:55:32.824Z,999.90
2023-09-12T11:56:32.823Z,999.90
2023-09-12T11:57:32.825Z,999.90
2023-09-12T11:58:32.789Z,999.90
2023-09-12T11:59:33.058Z,999.90
2023-09-12T12:00:32.807Z,999.90
2023-09-12T12:01:32.786Z,999.90
2023-09-12T12:02:32.793Z,999.90
2023-09-12T12:03:32.807Z,999.90
2023-09-12T12:04:32.812Z,999.90
2023-09-12T12:05:32.744Z,999.90
2023-09-12T12:06:32.737Z,999.90
2023-09-12T12:07:32.690Z,999.90
2023-09-12T12:08:33.163Z,999.90
2023-09-12T12:09:32.719Z,999.90
2023-09-12T12:10:32.681Z,999.90
2023-09-12T12:11:32.666Z,999.90
2023-09-12T12:12:32.689Z,999.90
2023-09-12T12:13:32.638Z,999.90
2023-09-12T12:14:32.631Z,999.90
2023-09-12T12:15:32.628Z,999.90
2023-09-12T12:16:32.815Z,999.90
2023-09-12T12:17:32.628Z,999.90
2023-09-12T12:18:32.657Z,999.90
2023-09-12T12:19:32.592Z,999.90
2023-09-12T12:20:32.576Z,999.90
2023-09-12T12:21:33.222Z,999.90
2023-09-12T12:22:32.557Z,999.90
2023-09-12T12:23:32.504Z,999.90
2023-09-12T12:24:32.848Z,999.90
2023-09-12T12:25:32.533Z,999.90
2023-09-12T12:26:32.506Z,999.90
2023-09-12T12:27:32.509Z,999.90
2023-09-12T12:28:32.472Z,999.90
2023-09-12T12:29:32.456Z,999.90
2023-09-12T12:30:32.534Z,999.90
2023-09-12T12:31:33.772Z,999.90
2023-09-12T12:32:32.471Z,999.90
2023-09-12T12:34:19.367Z,999.90
2023-09-12T12:35:18.411Z,999.90
2023-09-12T12:35:51.866Z,999.90
2023-09-12T12:36:36.780Z,999.90
2023-09-12T12:37:32.707Z,999.90
2023-09-12T12:38:32.459Z,999.90
2023-09-12T12:39:32.380Z,999.90
2023-09-12T12:40:40.759Z,999.90
2023-09-12T12:41:45.630Z,999.90
2023-09-12T12:42:34.683Z,999.90
2023-09-12T12:43:32.323Z,999.90
2023-09-12T12:44:32.606Z,999.90
2023-09-12T12:45:32.475Z,999.90
2023-09-12T12:46:32.436Z,999.90
2023-09-12T12:47:32.305Z,999.90
2023-09-12T12:48:32.442Z,999.90
2023-09-12T12:49:32.387Z,999.90
2023-09-12T12:50:32.234Z,999.90
2023-09-12T12:51:32.339Z,999.90
2023-09-12T12:52:32.205Z,999.90
2023-09-12T12:53:46.019Z,999.90
2023-09-12T12:54:32.217Z,999.90
2023-09-12T12:55:32.170Z,999.90
2023-09-12T12:56:32.406Z,999.90
2023-09-12T12:57:32.167Z,999.90
2023-09-12T12:58:32.360Z,999.90
2023-09-12T12:59:32.147Z,999.90
2023-09-12T13:00:32.171Z,999.90
2023-09-12T13:01:32.197Z,999.90
2023-09-12T13:02:32.114Z,999.90
2023-09-12T13:03:32.239Z,999.90
2023-09-12T13:04:32.222Z,999.90
2023-09-12T13:05:32.081Z,999.90
2023-09-12T13:06:32.089Z,999.90
2023-09-12T13:07:32.055Z,999.90
2023-09-12T13:08:32.060Z,999.90
2023-09-12T13:09:32.112Z,999.90
2023-09-12T13:10:32.034Z,999.90
2023-09-12T13:11:31.996Z,999.90
2023-09-12T13:12:32.056Z,999.90
2023-09-12T13:13:31.994Z,999.90
2023-09-12T13:14:32.275Z,999.90
2023-09-12T13:15:31.991Z,999.90
2023-09-12T13:16:32.002Z,999.90
2023-09-12T13:17:32.051Z,999.90
2023-09-12T13:18:32.032Z,999.90
2023-09-12T13:19:31.914Z,999.90
2023-09-12T13:20:31.925Z,999.90
2023-09-12T13:21:32.016Z,999.90
2023-09-12T13:22:31.914Z,999.90
2023-09-12T13:23:31.895Z,999.90
2023-09-12T13:24:31.869Z,999.90
2023-09-12T13:25:31.846Z,999.90
2023-09-12T13:26:37.043Z,999.90
2023-09-12T13:27:32.180Z,999.90
2023-09-12T13:28:31.850Z,999.90
2023-09-12T13:29:31.801Z,999.90
2023-09-12T13:30:31.812Z,999.90
2023-09-12T13:31:31.878Z,999.90
2023-09-12T13:32:31.864Z,999.90
2023-09-12T13:33:31.797Z,999.90
2023-09-12T13:34:31.791Z,999.90
2023-09-12T13:35:31.761Z,999.90
2023-09-12T13:36:31.801Z,999.90
2023-09-12T13:37:31.818Z,999.90
2023-09-12T13:38:31.756Z,999.90
2023-09-12T13:39:31.746Z,999.90
2023-09-12T13:40:31.704Z,999.90
2023-09-12T13:41:31.722Z,999.90
2023-09-12T13:42:31.721Z,999.90
2023-09-12T13:43:31.678Z,999.90
2023-09-12T13:44:31.681Z,999.90
2023-09-12T13:45:31.708Z,999.90
2023-09-12T13:46:31.742Z,999.90
2023-09-12T13:47:31.660Z,999.90
2023-09-12T13:48:31.683Z,999.90
2023-09-12T13:49:31.685Z,999.90
2023-09-12T13:50:31.608Z,999.90
2023-09-12T13:51:31.647Z,999.90
2023-09-12T13:52:31.590Z,999.90
2023-09-12T13:53:31.577Z,999.90
2023-09-12T13:54:31.611Z,999.90
2023-09-12T13:55:53.269Z,999.90
2023-09-12T13:56:31.549Z,999.90
2023-09-12T13:57:36.213Z,999.90
2023-09-12T13:58:40.030Z,999.90
2023-09-12T13:59:41.679Z,999.90
2023-09-12T14:00:39.726Z,999.90
2023-09-12T14:01:35.222Z,999.90
2023-09-12T14:02:31.715Z,999.90
2023-09-12T14:03:33.220Z,999.90
2023-09-12T14:04:31.730Z,999.90
2023-09-12T14:05:32.045Z,999.90
2023-09-12T14:06:31.877Z,999.90
2023-09-12T14:07:32.027Z,999.90
2023-09-12T14:08:31.480Z,999.90
2023-09-12T14:09:31.584Z,999.90
2023-09-12T14:10:37.131Z,999.90
2023-09-12T14:11:35.647Z,999.90
2023-09-12T14:12:31.489Z,999.90
2023-09-12T14:13:31.710Z,999.90
2023-09-12T14:14:32.138Z,999.90
2023-09-12T14:15:32.299Z,999.90
2023-09-12T14:16:31.398Z,999.90
2023-09-12T14:17:31.835Z,999.90
2023-09-12T14:18:31.651Z,999.90
2023-09-12T14:19:31.632Z,999.90
2023-09-12T14:20:31.336Z,999.90
2023-09-12T14:21:31.550Z,999.90
2023-09-12T14:22:32.805Z,999.90
2023-09-12T14:23:31.325Z,999.90
2023-09-12T14:24:32.657Z,999.90
2023-09-12T14:25:33.013Z,999.90
2023-09-12T14:26:32.993Z,999.90
2023-09-12T14:27:31.345Z,999.90
2023-09-12T14:28:31.244Z,999.90
2023-09-12T14:29:31.454Z,999.90
2023-09-12T14:30:31.205Z,999.90
2023-09-12T14:31:31.209Z,999.90
2023-09-12T14:32:31.227Z,999.90
2023-09-12T14:33:31.190Z,999.90
2023-09-12T14:34:31.371Z,999.90
2023-09-12T14:35:31.157Z,999.90
2023-09-12T14:36:31.151Z,999.90
2023-09-12T14:37:31.125Z,999.90
2023-09-12T14:38:31.106Z,999.90
2023-09-12T14:39:31.405Z,999.90
2023-09-12T14:40:31.078Z,999.90
2023-09-12T14:41:31.072Z,999.90
2023-09-12T14:42:31.092Z,992.90
2023-09-12T14:43:31.058Z,990.50
2023-09-12T14:44:31.034Z,999.90
2023-09-12T14:45:31.125Z,999.90
2023-09-12T14:46:31.125Z,997.60
2023-09-12T14:47:31.061Z,992.90
2023-09-12T14:48:31.069Z,979.60
2023-09-12T14:49:35.703Z,985.40
2023-09-12T14:50:40.438Z,975.70
2023-09-12T14:51:33.928Z,972.90
2023-09-12T14:52:31.361Z,975.30
2023-09-12T14:53:30.959Z,965.70
2023-09-12T14:54:30.930Z,952.50
2023-09-12T14:55:30.925Z,942.40
2023-09-12T14:56:30.919Z,958.60
2023-09-12T14:57:30.947Z,951.40
2023-09-12T14:58:30.890Z,956.10
2023-09-12T14:59:30.876Z,954.70
2023-09-12T15:00:30.908Z,947.10
2023-09-12T15:01:30.968Z,959.40
2023-09-12T15:02:30.891Z,984.60
2023-09-12T15:03:30.873Z,969.70
2023-09-12T15:04:31.059Z,960.30
2023-09-12T15:05:30.811Z,965.40
2023-09-12T15:06:30.817Z,954.20
2023-09-12T15:07:31.147Z,968.30
2023-09-12T15:08:30.789Z,949.30
2023-09-12T15:09:30.794Z,941.40
2023-09-12T15:10:30.763Z,957.10
2023-09-12T15:11:30.747Z,937.00
2023-09-12T15:12:30.785Z,916.10
2023-09-12T15:13:30.742Z,960.50
2023-09-12T15:14:30.723Z,955.90
2023-09-12T15:15:30.790Z,947.60
2023-09-12T15:16:30.776Z,977.70
2023-09-12T15:17:30.686Z,976.80
2023-09-12T15:18:30.709Z,975.20
2023-09-12T15:19:30.642Z,975.00
2023-09-12T15:20:30.642Z,975.40
2023-09-12T15:21:30.642Z,967.10
2023-09-12T15:22:30.642Z,973.80
2023-09-12T15:23:30.610Z,966.00
2023-09-12T15:24:30.620Z,960.30
2023-09-12T15:25:30.612Z,987.40
2023-09-12T15:26:30.650Z,977.70
2023-09-12T15:27:30.617Z,993.90
2023-09-12T15:28:30.568Z,943.70
2023-09-12T15:29:30.563Z,928.80
2023-09-12T15:30:30.592Z,976.40
2023-09-12T15:31:30.583Z,996.90
2023-09-12T15:32:30.592Z,943.60
